logo
Search for airport 
image banner adimage banner adimage banner ad
image banner ad

UAAL - Usharal

Located in Usharal, Kazakhstan

ICAO - , IATA -

Data provided by Airmate  

General information

Coordinates: N46°11'27" E80°49'47"
Elevation is 1295 feet MSL.
Magnetic variation is 5° East
View others Airports in East Kazakhstan

Operational data

Special qualification required
Current time UTC:
Current local time:
Weather at : - ( 0 km )
METAR: UWWW 180302Z 11002MPS CAVOK 25/19 Q1015 R15/190057 TEMPO -TSRA SCT020CB RMK QFE749/0999
View NOTAMs / SUP AIP / TFR affecting this airport [VIEW]
Communications frequencies: [VIEW]

Runways:

RWY identifierQFULength (ft)Width (ft)SurfaceLDA (ft)
0998°8858148CONC8858
27278°8858148CONC8858

Airport contact information

Address: Usharal Kazakhstan

Satellite view of UAAL